sensor_id;sensor_type;location;lat;lon;timestamp;P1;durP1;ratioP1;P2;durP2;ratioP2
58918;SDS011;44704;50.122;19.932;2022-09-12T00:00:25;9.50;;;8.10;;
58918;SDS011;44704;50.122;19.932;2022-09-12T00:03:19;11.50;;;9.00;;
58918;SDS011;44704;50.122;19.932;2022-09-12T00:05:46;9.40;;;8.40;;
58918;SDS011;44704;50.122;19.932;2022-09-12T00:08:13;11.10;;;8.80;;
58918;SDS011;44704;50.122;19.932;2022-09-12T00:10:41;9.80;;;8.10;;
58918;SDS011;44704;50.122;19.932;2022-09-12T00:13:09;12.00;;;7.80;;
58918;SDS011;44704;50.122;19.932;2022-09-12T00:15:40;14.50;;;8.00;;
58918;SDS011;44704;50.122;19.932;2022-09-12T00:18:13;10.20;;;7.40;;
58918;SDS011;44704;50.122;19.932;2022-09-12T00:20:43;15.10;;;8.40;;
58918;SDS011;44704;50.122;19.932;2022-09-12T00:23:12;10.00;;;7.30;;
58918;SDS011;44704;50.122;19.932;2022-09-12T00:25:44;10.20;;;6.90;;
58918;SDS011;44704;50.122;19.932;2022-09-12T00:28:12;10.90;;;7.20;;
58918;SDS011;44704;50.122;19.932;2022-09-12T00:30:45;10.90;;;7.50;;
58918;SDS011;44704;50.122;19.932;2022-09-12T00:33:14;10.00;;;8.30;;
58918;SDS011;44704;50.122;19.932;2022-09-12T00:38:11;10.50;;;7.70;;
58918;SDS011;44704;50.122;19.932;2022-09-12T00:40:39;11.70;;;7.70;;
58918;SDS011;44704;50.122;19.932;2022-09-12T00:43:13;13.80;;;8.90;;
58918;SDS011;44704;50.122;19.932;2022-09-12T00:46:22;10.10;;;7.90;;
58918;SDS011;44704;50.122;19.932;2022-09-12T00:49:11;17.80;;;8.70;;
58918;SDS011;44704;50.122;19.932;2022-09-12T00:51:43;10.20;;;8.70;;
58918;SDS011;44704;50.122;19.932;2022-09-12T00:54:16;12.70;;;9.50;;
58918;SDS011;44704;50.122;19.932;2022-09-12T00:56:48;12.20;;;8.70;;
58918;SDS011;44704;50.122;19.932;2022-09-12T00:59:19;11.70;;;9.10;;
58918;SDS011;44704;50.122;19.932;2022-09-12T01:01:51;12.20;;;9.60;;
58918;SDS011;44704;50.122;19.932;2022-09-12T01:04:19;13.10;;;8.90;;
58918;SDS011;44704;50.122;19.932;2022-09-12T01:06:48;11.10;;;9.00;;
58918;SDS011;44704;50.122;19.932;2022-09-12T01:09:17;12.70;;;8.90;;
58918;SDS011;44704;50.122;19.932;2022-09-12T01:11:48;11.60;;;8.60;;
58918;SDS011;44704;50.122;19.932;2022-09-12T01:14:17;11.90;;;9.20;;
58918;SDS011;44704;50.122;19.932;2022-09-12T01:16:46;10.80;;;8.20;;
58918;SDS011;44704;50.122;19.932;2022-09-12T01:27:39;14.50;;;8.80;;
58918;SDS011;44704;50.122;19.932;2022-09-12T01:40:45;9.80;;;8.10;;
58918;SDS011;44704;50.122;19.932;2022-09-12T01:43:46;9.50;;;7.90;;
58918;SDS011;44704;50.122;19.932;2022-09-12T01:49:31;11.40;;;7.70;;
58918;SDS011;44704;50.122;19.932;2022-09-12T01:52:23;10.40;;;8.30;;
58918;SDS011;44704;50.122;19.932;2022-09-12T01:54:58;9.70;;;7.30;;
58918;SDS011;44704;50.122;19.932;2022-09-12T01:57:33;9.30;;;7.60;;
58918;SDS011;44704;50.122;19.932;2022-09-12T02:00:08;10.40;;;7.70;;
58918;SDS011;44704;50.122;19.932;2022-09-12T02:02:59;10.70;;;8.20;;
58918;SDS011;44704;50.122;19.932;2022-09-12T02:05:35;8.60;;;7.00;;
58918;SDS011;44704;50.122;19.932;2022-09-12T02:08:07;8.70;;;7.60;;
58918;SDS011;44704;50.122;19.932;2022-09-12T02:10:52;10.60;;;7.90;;
58918;SDS011;44704;50.122;19.932;2022-09-12T02:13:32;8.50;;;7.40;;
58918;SDS011;44704;50.122;19.932;2022-09-12T02:16:08;11.30;;;6.90;;
58918;SDS011;44704;50.122;19.932;2022-09-12T02:18:43;9.00;;;6.60;;
58918;SDS011;44704;50.122;19.932;2022-09-12T02:21:12;8.60;;;6.80;;
58918;SDS011;44704;50.122;19.932;2022-09-12T02:23:40;9.00;;;6.40;;
58918;SDS011;44704;50.122;19.932;2022-09-12T02:26:14;7.60;;;6.40;;
58918;SDS011;44704;50.122;19.932;2022-09-12T02:28:52;7.70;;;6.70;;
58918;SDS011;44704;50.122;19.932;2022-09-12T02:31:23;11.30;;;8.30;;
58918;SDS011;44704;50.122;19.932;2022-09-12T02:39:48;12.40;;;10.00;;
58918;SDS011;44704;50.122;19.932;2022-09-12T02:42:15;13.90;;;11.40;;
58918;SDS011;44704;50.122;19.932;2022-09-12T02:44:42;15.90;;;11.80;;
58918;SDS011;44704;50.122;19.932;2022-09-12T02:47:11;15.00;;;12.00;;
58918;SDS011;44704;50.122;19.932;2022-09-12T02:49:44;15.60;;;11.60;;
58918;SDS011;44704;50.122;19.932;2022-09-12T02:52:19;14.40;;;11.50;;
58918;SDS011;44704;50.122;19.932;2022-09-12T02:54:46;14.00;;;12.30;;
58918;SDS011;44704;50.122;19.932;2022-09-12T02:57:18;19.80;;;12.90;;
58918;SDS011;44704;50.122;19.932;2022-09-12T02:59:46;18.00;;;13.90;;
58918;SDS011;44704;50.122;19.932;2022-09-12T03:02:20;17.20;;;14.10;;
58918;SDS011;44704;50.122;19.932;2022-09-12T03:24:32;21.50;;;15.90;;
58918;SDS011;44704;50.122;19.932;2022-09-12T03:27:14;21.20;;;15.40;;
58918;SDS011;44704;50.122;19.932;2022-09-12T03:29:47;22.40;;;14.80;;
58918;SDS011;44704;50.122;19.932;2022-09-12T03:32:16;22.10;;;15.30;;
58918;SDS011;44704;50.122;19.932;2022-09-12T03:34:43;21.50;;;15.10;;
58918;SDS011;44704;50.122;19.932;2022-09-12T03:37:10;21.00;;;14.30;;
58918;SDS011;44704;50.122;19.932;2022-09-12T03:39:37;19.30;;;14.00;;
58918;SDS011;44704;50.122;19.932;2022-09-12T03:42:07;23.70;;;16.70;;
58918;SDS011;44704;50.122;19.932;2022-09-12T03:44:34;21.00;;;15.10;;
58918;SDS011;44704;50.122;19.932;2022-09-12T03:47:04;19.70;;;15.50;;
58918;SDS011;44704;50.122;19.932;2022-09-12T03:49:30;23.50;;;15.80;;
58918;SDS011;44704;50.122;19.932;2022-09-12T03:51:57;23.10;;;16.00;;
58918;SDS011;44704;50.122;19.932;2022-09-12T03:54:24;21.10;;;14.00;;
58918;SDS011;44704;50.122;19.932;2022-09-12T03:56:51;20.70;;;14.40;;
58918;SDS011;44704;50.122;19.932;2022-09-12T03:59:18;20.20;;;15.00;;
58918;SDS011;44704;50.122;19.932;2022-09-12T04:01:45;24.50;;;16.70;;
58918;SDS011;44704;50.122;19.932;2022-09-12T04:04:14;19.60;;;14.90;;
58918;SDS011;44704;50.122;19.932;2022-09-12T04:06:41;21.10;;;16.00;;
58918;SDS011;44704;50.122;19.932;2022-09-12T04:09:11;22.00;;;17.30;;
58918;SDS011;44704;50.122;19.932;2022-09-12T04:11:39;20.90;;;15.90;;
58918;SDS011;44704;50.122;19.932;2022-09-12T04:14:07;25.30;;;16.70;;
58918;SDS011;44704;50.122;19.932;2022-09-12T04:16:36;18.10;;;13.00;;
58918;SDS011;44704;50.122;19.932;2022-09-12T04:19:03;21.50;;;15.90;;
58918;SDS011;44704;50.122;19.932;2022-09-12T04:21:30;20.50;;;15.20;;
58918;SDS011;44704;50.122;19.932;2022-09-12T04:23:57;22.20;;;16.20;;
58918;SDS011;44704;50.122;19.932;2022-09-12T04:26:26;19.90;;;13.60;;
58918;SDS011;44704;50.122;19.932;2022-09-12T04:28:55;21.10;;;15.50;;
58918;SDS011;44704;50.122;19.932;2022-09-12T04:31:23;21.70;;;15.60;;
58918;SDS011;44704;50.122;19.932;2022-09-12T04:33:54;21.20;;;15.00;;
58918;SDS011;44704;50.122;19.932;2022-09-12T04:36:23;21.30;;;15.80;;
58918;SDS011;44704;50.122;19.932;2022-09-12T04:38:51;21.50;;;16.50;;
58918;SDS011;44704;50.122;19.932;2022-09-12T04:41:22;24.10;;;16.70;;
58918;SDS011;44704;50.122;19.932;2022-09-12T04:43:55;21.50;;;15.00;;
58918;SDS011;44704;50.122;19.932;2022-09-12T04:46:24;17.80;;;13.70;;
58918;SDS011;44704;50.122;19.932;2022-09-12T04:48:51;17.20;;;13.50;;
58918;SDS011;44704;50.122;19.932;2022-09-12T04:51:20;16.00;;;13.00;;
58918;SDS011;44704;50.122;19.932;2022-09-12T04:53:49;18.00;;;12.40;;
58918;SDS011;44704;50.122;19.932;2022-09-12T04:56:18;18.80;;;13.90;;
58918;SDS011;44704;50.122;19.932;2022-09-12T04:58:46;16.60;;;12.40;;
58918;SDS011;44704;50.122;19.932;2022-09-12T05:01:19;18.00;;;12.70;;
58918;SDS011;44704;50.122;19.932;2022-09-12T05:03:48;13.90;;;10.70;;
58918;SDS011;44704;50.122;19.932;2022-09-12T05:06:20;16.90;;;11.80;;
58918;SDS011;44704;50.122;19.932;2022-09-12T05:08:50;15.40;;;10.30;;
58918;SDS011;44704;50.122;19.932;2022-09-12T05:11:19;17.80;;;12.00;;
58918;SDS011;44704;50.122;19.932;2022-09-12T05:13:48;19.00;;;12.00;;
58918;SDS011;44704;50.122;19.932;2022-09-12T05:16:22;17.20;;;12.80;;
58918;SDS011;44704;50.122;19.932;2022-09-12T05:19:11;18.50;;;12.80;;
58918;SDS011;44704;50.122;19.932;2022-09-12T05:21:37;16.10;;;12.40;;
58918;SDS011;44704;50.122;19.932;2022-09-12T05:24:04;16.50;;;11.30;;
58918;SDS011;44704;50.122;19.932;2022-09-12T05:26:32;16.50;;;10.50;;
58918;SDS011;44704;50.122;19.932;2022-09-12T05:28:59;12.40;;;8.70;;
58918;SDS011;44704;50.122;19.932;2022-09-12T05:31:26;10.20;;;7.50;;
58918;SDS011;44704;50.122;19.932;2022-09-12T05:33:54;8.20;;;6.30;;
58918;SDS011;44704;50.122;19.932;2022-09-12T05:36:24;9.50;;;5.80;;
58918;SDS011;44704;50.122;19.932;2022-09-12T05:38:53;7.50;;;5.70;;
58918;SDS011;44704;50.122;19.932;2022-09-12T05:41:22;6.50;;;5.10;;
58918;SDS011;44704;50.122;19.932;2022-09-12T05:43:51;6.70;;;5.00;;
58918;SDS011;44704;50.122;19.932;2022-09-12T05:48:48;7.90;;;5.10;;
58918;SDS011;44704;50.122;19.932;2022-09-12T05:51:17;8.20;;;5.80;;
58918;SDS011;44704;50.122;19.932;2022-09-12T05:53:47;5.60;;;4.80;;
58918;SDS011;44704;50.122;19.932;2022-09-12T05:56:16;6.40;;;5.00;;
58918;SDS011;44704;50.122;19.932;2022-09-12T05:58:46;6.00;;;4.20;;
58918;SDS011;44704;50.122;19.932;2022-09-12T06:01:15;6.40;;;4.90;;
58918;SDS011;44704;50.122;19.932;2022-09-12T06:03:44;6.70;;;4.70;;
58918;SDS011;44704;50.122;19.932;2022-09-12T06:06:13;9.00;;;4.10;;
58918;SDS011;44704;50.122;19.932;2022-09-12T06:08:42;5.80;;;4.90;;
58918;SDS011;44704;50.122;19.932;2022-09-12T06:11:12;6.10;;;4.10;;
58918;SDS011;44704;50.122;19.932;2022-09-12T06:13:44;3.90;;;3.40;;
58918;SDS011;44704;50.122;19.932;2022-09-12T06:16:15;5.90;;;4.10;;
58918;SDS011;44704;50.122;19.932;2022-09-12T06:18:56;5.40;;;3.80;;
58918;SDS011;44704;50.122;19.932;2022-09-12T06:21:25;6.40;;;3.80;;
58918;SDS011;44704;50.122;19.932;2022-09-12T06:23:53;5.20;;;3.00;;
58918;SDS011;44704;50.122;19.932;2022-09-12T06:26:21;5.00;;;3.90;;
58918;SDS011;44704;50.122;19.932;2022-09-12T06:28:51;4.70;;;3.50;;
58918;SDS011;44704;50.122;19.932;2022-09-12T06:31:21;6.60;;;3.70;;
58918;SDS011;44704;50.122;19.932;2022-09-12T06:33:51;3.90;;;3.30;;
58918;SDS011;44704;50.122;19.932;2022-09-12T06:36:27;5.00;;;3.80;;
58918;SDS011;44704;50.122;19.932;2022-09-12T06:38:57;4.60;;;3.40;;
58918;SDS011;44704;50.122;19.932;2022-09-12T06:41:29;6.40;;;3.60;;
58918;SDS011;44704;50.122;19.932;2022-09-12T06:43:57;5.10;;;3.50;;
58918;SDS011;44704;50.122;19.932;2022-09-12T06:46:25;4.80;;;3.40;;
58918;SDS011;44704;50.122;19.932;2022-09-12T06:48:56;5.40;;;3.10;;
58918;SDS011;44704;50.122;19.932;2022-09-12T06:51:25;5.70;;;3.50;;
58918;SDS011;44704;50.122;19.932;2022-09-12T06:53:54;3.80;;;3.10;;
58918;SDS011;44704;50.122;19.932;2022-09-12T06:56:23;5.10;;;3.20;;
58918;SDS011;44704;50.122;19.932;2022-09-12T06:58:54;4.80;;;2.60;;
58918;SDS011;44704;50.122;19.932;2022-09-12T07:01:29;6.80;;;2.70;;
58918;SDS011;44704;50.122;19.932;2022-09-12T07:04:00;4.50;;;2.80;;
58918;SDS011;44704;50.122;19.932;2022-09-12T07:06:30;5.60;;;2.80;;
58918;SDS011;44704;50.122;19.932;2022-09-12T07:09:03;4.50;;;2.90;;
58918;SDS011;44704;50.122;19.932;2022-09-12T07:11:32;7.60;;;3.10;;
58918;SDS011;44704;50.122;19.932;2022-09-12T07:14:01;6.10;;;3.00;;
58918;SDS011;44704;50.122;19.932;2022-09-12T07:16:31;4.20;;;2.50;;
58918;SDS011;44704;50.122;19.932;2022-09-12T07:18:58;5.00;;;3.40;;
58918;SDS011;44704;50.122;19.932;2022-09-12T07:23:54;3.40;;;2.20;;
58918;SDS011;44704;50.122;19.932;2022-09-12T07:26:27;4.40;;;3.20;;
58918;SDS011;44704;50.122;19.932;2022-09-12T07:28:55;5.50;;;2.50;;
58918;SDS011;44704;50.122;19.932;2022-09-12T07:33:52;4.90;;;3.00;;
58918;SDS011;44704;50.122;19.932;2022-09-12T07:36:20;8.60;;;3.00;;
58918;SDS011;44704;50.122;19.932;2022-09-12T07:38:52;5.50;;;2.80;;
58918;SDS011;44704;50.122;19.932;2022-09-12T07:41:22;3.40;;;2.60;;
58918;SDS011;44704;50.122;19.932;2022-09-12T07:43:56;5.70;;;2.80;;
58918;SDS011;44704;50.122;19.932;2022-09-12T07:46:25;4.90;;;3.50;;
58918;SDS011;44704;50.122;19.932;2022-09-12T07:48:56;3.70;;;2.70;;
58918;SDS011;44704;50.122;19.932;2022-09-12T07:51:25;2.70;;;2.30;;
58918;SDS011;44704;50.122;19.932;2022-09-12T07:53:53;2.80;;;2.60;;
58918;SDS011;44704;50.122;19.932;2022-09-12T07:58:49;3.80;;;2.70;;
58918;SDS011;44704;50.122;19.932;2022-09-12T08:01:17;3.80;;;2.70;;
58918;SDS011;44704;50.122;19.932;2022-09-12T08:03:46;4.20;;;2.20;;
58918;SDS011;44704;50.122;19.932;2022-09-12T08:06:16;5.60;;;3.00;;
58918;SDS011;44704;50.122;19.932;2022-09-12T08:08:49;4.80;;;2.40;;
58918;SDS011;44704;50.122;19.932;2022-09-12T08:11:18;3.40;;;2.60;;
58918;SDS011;44704;50.122;19.932;2022-09-12T08:13:47;3.60;;;2.50;;
58918;SDS011;44704;50.122;19.932;2022-09-12T08:16:18;4.70;;;2.10;;
58918;SDS011;44704;50.122;19.932;2022-09-12T08:18:47;3.20;;;2.80;;
58918;SDS011;44704;50.122;19.932;2022-09-12T08:21:16;3.80;;;2.40;;
58918;SDS011;44704;50.122;19.932;2022-09-12T08:23:50;4.30;;;2.40;;
58918;SDS011;44704;50.122;19.932;2022-09-12T08:26:19;2.50;;;1.90;;
58918;SDS011;44704;50.122;19.932;2022-09-12T08:28:47;6.80;;;2.70;;
58918;SDS011;44704;50.122;19.932;2022-09-12T08:31:15;5.50;;;2.60;;
58918;SDS011;44704;50.122;19.932;2022-09-12T08:33:44;5.20;;;2.70;;
58918;SDS011;44704;50.122;19.932;2022-09-12T08:36:20;5.60;;;2.60;;
58918;SDS011;44704;50.122;19.932;2022-09-12T08:38:50;3.30;;;2.60;;
58918;SDS011;44704;50.122;19.932;2022-09-12T08:44:11;2.80;;;2.40;;
58918;SDS011;44704;50.122;19.932;2022-09-12T08:50:29;2.00;;;1.90;;
58918;SDS011;44704;50.122;19.932;2022-09-12T08:55:39;3.40;;;2.00;;
58918;SDS011;44704;50.122;19.932;2022-09-12T08:58:12;3.60;;;2.00;;
58918;SDS011;44704;50.122;19.932;2022-09-12T09:09:11;4.50;;;2.70;;
58918;SDS011;44704;50.122;19.932;2022-09-12T09:17:08;5.80;;;2.10;;
58918;SDS011;44704;50.122;19.932;2022-09-12T09:19:44;4.80;;;2.20;;
58918;SDS011;44704;50.122;19.932;2022-09-12T09:22:28;2.20;;;1.60;;
58918;SDS011;44704;50.122;19.932;2022-09-12T09:25:08;3.80;;;2.30;;
58918;SDS011;44704;50.122;19.932;2022-09-12T09:27:49;4.90;;;2.30;;
58918;SDS011;44704;50.122;19.932;2022-09-12T09:30:38;6.80;;;2.10;;
58918;SDS011;44704;50.122;19.932;2022-09-12T09:33:09;3.20;;;2.00;;
58918;SDS011;44704;50.122;19.932;2022-09-12T09:35:46;6.00;;;1.70;;
58918;SDS011;44704;50.122;19.932;2022-09-12T09:38:22;2.50;;;1.70;;
58918;SDS011;44704;50.122;19.932;2022-09-12T09:41:06;3.60;;;1.70;;
58918;SDS011;44704;50.122;19.932;2022-09-12T09:43:48;2.00;;;1.80;;
58918;SDS011;44704;50.122;19.932;2022-09-12T09:46:15;2.80;;;1.70;;
58918;SDS011;44704;50.122;19.932;2022-09-12T09:48:47;4.10;;;1.40;;
58918;SDS011;44704;50.122;19.932;2022-09-12T09:51:16;2.70;;;1.50;;
58918;SDS011;44704;50.122;19.932;2022-09-12T09:53:54;4.00;;;1.50;;
58918;SDS011;44704;50.122;19.932;2022-09-12T09:56:29;1.90;;;1.50;;
58918;SDS011;44704;50.122;19.932;2022-09-12T09:59:14;1.90;;;1.20;;
58918;SDS011;44704;50.122;19.932;2022-09-12T10:01:52;2.30;;;1.20;;
58918;SDS011;44704;50.122;19.932;2022-09-12T10:06:50;2.60;;;1.40;;
58918;SDS011;44704;50.122;19.932;2022-09-12T10:09:24;1.60;;;1.10;;
58918;SDS011;44704;50.122;19.932;2022-09-12T10:11:53;4.00;;;1.60;;
58918;SDS011;44704;50.122;19.932;2022-09-12T10:14:29;3.50;;;1.40;;
58918;SDS011;44704;50.122;19.932;2022-09-12T10:17:20;2.20;;;1.30;;
58918;SDS011;44704;50.122;19.932;2022-09-12T10:19:51;3.00;;;1.60;;
58918;SDS011;44704;50.122;19.932;2022-09-12T10:22:20;3.50;;;1.30;;
58918;SDS011;44704;50.122;19.932;2022-09-12T10:24:50;2.50;;;1.20;;
58918;SDS011;44704;50.122;19.932;2022-09-12T10:27:23;2.00;;;1.20;;
58918;SDS011;44704;50.122;19.932;2022-09-12T10:32:44;3.50;;;1.70;;
58918;SDS011;44704;50.122;19.932;2022-09-12T10:40:22;2.60;;;1.30;;
58918;SDS011;44704;50.122;19.932;2022-09-12T10:42:54;2.40;;;1.40;;
58918;SDS011;44704;50.122;19.932;2022-09-12T10:47:55;2.10;;;1.20;;
58918;SDS011;44704;50.122;19.932;2022-09-12T10:53:17;2.10;;;1.20;;
58918;SDS011;44704;50.122;19.932;2022-09-12T11:04:09;1.60;;;1.30;;
58918;SDS011;44704;50.122;19.932;2022-09-12T11:20:27;3.60;;;1.50;;
58918;SDS011;44704;50.122;19.932;2022-09-12T11:34:01;3.20;;;1.60;;
58918;SDS011;44704;50.122;19.932;2022-09-12T11:39:25;5.00;;;1.20;;
58918;SDS011;44704;50.122;19.932;2022-09-12T11:42:16;1.30;;;1.00;;
58918;SDS011;44704;50.122;19.932;2022-09-12T11:44:51;1.50;;;1.10;;
58918;SDS011;44704;50.122;19.932;2022-09-12T11:47:24;1.50;;;1.20;;
58918;SDS011;44704;50.122;19.932;2022-09-12T11:49:55;2.50;;;1.10;;
58918;SDS011;44704;50.122;19.932;2022-09-12T11:52:28;3.20;;;1.10;;
58918;SDS011;44704;50.122;19.932;2022-09-12T11:55:03;3.80;;;1.30;;
58918;SDS011;44704;50.122;19.932;2022-09-12T11:57:44;2.50;;;1.10;;
58918;SDS011;44704;50.122;19.932;2022-09-12T12:00:22;2.30;;;1.10;;
58918;SDS011;44704;50.122;19.932;2022-09-12T12:05:45;3.40;;;1.40;;
58918;SDS011;44704;50.122;19.932;2022-09-12T12:08:22;2.90;;;1.00;;
58918;SDS011;44704;50.122;19.932;2022-09-12T12:10:55;1.80;;;1.10;;
58918;SDS011;44704;50.122;19.932;2022-09-12T12:13:35;1.60;;;1.20;;
58918;SDS011;44704;50.122;19.932;2022-09-12T12:16:12;1.80;;;1.00;;
58918;SDS011;44704;50.122;19.932;2022-09-12T12:18:51;4.30;;;1.20;;
58918;SDS011;44704;50.122;19.932;2022-09-12T12:21:42;2.10;;;1.20;;
58918;SDS011;44704;50.122;19.932;2022-09-12T12:29:09;3.40;;;1.10;;
58918;SDS011;44704;50.122;19.932;2022-09-12T12:34:26;1.10;;;0.90;;
58918;SDS011;44704;50.122;19.932;2022-09-12T12:39:55;3.20;;;1.40;;
58918;SDS011;44704;50.122;19.932;2022-09-12T12:44:56;2.40;;;1.00;;
58918;SDS011;44704;50.122;19.932;2022-09-12T12:47:31;1.80;;;1.00;;
58918;SDS011;44704;50.122;19.932;2022-09-12T12:50:07;2.40;;;1.10;;
58918;SDS011;44704;50.122;19.932;2022-09-12T12:52:54;2.70;;;1.50;;
58918;SDS011;44704;50.122;19.932;2022-09-12T12:55:23;1.20;;;0.90;;
58918;SDS011;44704;50.122;19.932;2022-09-12T12:57:55;3.30;;;1.30;;
58918;SDS011;44704;50.122;19.932;2022-09-12T13:00:24;1.70;;;0.90;;
58918;SDS011;44704;50.122;19.932;2022-09-12T13:08:26;2.00;;;1.30;;
58918;SDS011;44704;50.122;19.932;2022-09-12T13:11:07;2.10;;;1.20;;
58918;SDS011;44704;50.122;19.932;2022-09-12T13:13:40;4.70;;;1.30;;
58918;SDS011;44704;50.122;19.932;2022-09-12T13:19:03;4.30;;;1.10;;
58918;SDS011;44704;50.122;19.932;2022-09-12T13:21:37;1.30;;;1.20;;
58918;SDS011;44704;50.122;19.932;2022-09-12T13:24:11;5.20;;;1.20;;
58918;SDS011;44704;50.122;19.932;2022-09-12T13:26:43;2.70;;;1.00;;
58918;SDS011;44704;50.122;19.932;2022-09-12T13:31:44;1.60;;;1.20;;
58918;SDS011;44704;50.122;19.932;2022-09-12T13:34:33;1.80;;;1.40;;
58918;SDS011;44704;50.122;19.932;2022-09-12T13:37:08;3.30;;;1.10;;
58918;SDS011;44704;50.122;19.932;2022-09-12T13:42:39;2.20;;;1.40;;
58918;SDS011;44704;50.122;19.932;2022-09-12T13:45:10;2.30;;;1.60;;
58918;SDS011;44704;50.122;19.932;2022-09-12T13:47:42;3.10;;;1.50;;
58918;SDS011;44704;50.122;19.932;2022-09-12T13:50:15;1.80;;;1.00;;
58918;SDS011;44704;50.122;19.932;2022-09-12T13:52:54;1.50;;;1.10;;
58918;SDS011;44704;50.122;19.932;2022-09-12T13:55:26;4.60;;;1.80;;
58918;SDS011;44704;50.122;19.932;2022-09-12T13:58:12;2.20;;;1.30;;
58918;SDS011;44704;50.122;19.932;2022-09-12T14:00:41;1.60;;;1.20;;
58918;SDS011;44704;50.122;19.932;2022-09-12T14:06:26;2.60;;;1.60;;
58918;SDS011;44704;50.122;19.932;2022-09-12T14:08:54;2.90;;;1.20;;
58918;SDS011;44704;50.122;19.932;2022-09-12T14:11:27;2.90;;;1.50;;
58918;SDS011;44704;50.122;19.932;2022-09-12T14:13:56;3.20;;;1.50;;
58918;SDS011;44704;50.122;19.932;2022-09-12T14:16:36;3.00;;;1.30;;
58918;SDS011;44704;50.122;19.932;2022-09-12T14:19:07;1.60;;;1.30;;
58918;SDS011;44704;50.122;19.932;2022-09-12T14:21:37;2.20;;;1.50;;
58918;SDS011;44704;50.122;19.932;2022-09-12T14:24:05;3.20;;;1.40;;
58918;SDS011;44704;50.122;19.932;2022-09-12T14:26:36;2.30;;;1.40;;
58918;SDS011;44704;50.122;19.932;2022-09-12T14:29:06;2.90;;;1.70;;
58918;SDS011;44704;50.122;19.932;2022-09-12T14:31:35;2.20;;;1.40;;
58918;SDS011;44704;50.122;19.932;2022-09-12T14:34:08;1.90;;;1.10;;
58918;SDS011;44704;50.122;19.932;2022-09-12T14:36:38;2.50;;;1.60;;
58918;SDS011;44704;50.122;19.932;2022-09-12T14:39:19;1.70;;;1.30;;
58918;SDS011;44704;50.122;19.932;2022-09-12T14:41:48;1.70;;;1.30;;
58918;SDS011;44704;50.122;19.932;2022-09-12T14:44:18;1.70;;;1.30;;
58918;SDS011;44704;50.122;19.932;2022-09-12T14:46:49;2.40;;;1.40;;
58918;SDS011;44704;50.122;19.932;2022-09-12T14:49:36;3.20;;;1.50;;
58918;SDS011;44704;50.122;19.932;2022-09-12T14:52:04;1.70;;;1.40;;
58918;SDS011;44704;50.122;19.932;2022-09-12T14:54:33;1.40;;;1.20;;
58918;SDS011;44704;50.122;19.932;2022-09-12T14:57:06;2.20;;;1.60;;
58918;SDS011;44704;50.122;19.932;2022-09-12T15:00:04;2.50;;;1.60;;
58918;SDS011;44704;50.122;19.932;2022-09-12T15:02:52;4.40;;;1.60;;
58918;SDS011;44704;50.122;19.932;2022-09-12T15:05:23;4.40;;;1.60;;
58918;SDS011;44704;50.122;19.932;2022-09-12T15:07:53;4.70;;;1.30;;
58918;SDS011;44704;50.122;19.932;2022-09-12T15:15:46;2.10;;;1.60;;
58918;SDS011;44704;50.122;19.932;2022-09-12T15:18:35;2.70;;;1.50;;
58918;SDS011;44704;50.122;19.932;2022-09-12T15:21:03;2.60;;;2.00;;
58918;SDS011;44704;50.122;19.932;2022-09-12T15:23:39;2.80;;;1.40;;
58918;SDS011;44704;50.122;19.932;2022-09-12T15:26:19;3.10;;;1.20;;
58918;SDS011;44704;50.122;19.932;2022-09-12T15:28:49;4.50;;;1.80;;
58918;SDS011;44704;50.122;19.932;2022-09-12T15:31:29;4.60;;;1.50;;
58918;SDS011;44704;50.122;19.932;2022-09-12T15:33:58;1.80;;;1.50;;
58918;SDS011;44704;50.122;19.932;2022-09-12T15:36:27;18.70;;;8.60;;
58918;SDS011;44704;50.122;19.932;2022-09-12T15:38:54;6.30;;;2.50;;
58918;SDS011;44704;50.122;19.932;2022-09-12T15:41:34;2.00;;;1.30;;
58918;SDS011;44704;50.122;19.932;2022-09-12T15:44:05;2.70;;;1.40;;
58918;SDS011;44704;50.122;19.932;2022-09-12T15:46:33;2.90;;;1.50;;
58918;SDS011;44704;50.122;19.932;2022-09-12T15:49:01;23.60;;;13.80;;
58918;SDS011;44704;50.122;19.932;2022-09-12T15:51:28;3.40;;;1.80;;
58918;SDS011;44704;50.122;19.932;2022-09-12T15:53:55;3.60;;;1.70;;
58918;SDS011;44704;50.122;19.932;2022-09-12T15:56:22;2.50;;;1.40;;
58918;SDS011;44704;50.122;19.932;2022-09-12T15:58:49;2.80;;;1.50;;
58918;SDS011;44704;50.122;19.932;2022-09-12T16:01:17;2.40;;;1.60;;
58918;SDS011;44704;50.122;19.932;2022-09-12T16:03:45;2.80;;;1.60;;
58918;SDS011;44704;50.122;19.932;2022-09-12T16:06:13;5.60;;;2.50;;
58918;SDS011;44704;50.122;19.932;2022-09-12T16:08:41;2.90;;;1.60;;
58918;SDS011;44704;50.122;19.932;2022-09-12T16:11:11;2.50;;;1.70;;
58918;SDS011;44704;50.122;19.932;2022-09-12T16:13:43;5.10;;;1.80;;
58918;SDS011;44704;50.122;19.932;2022-09-12T16:16:10;4.30;;;1.60;;
58918;SDS011;44704;50.122;19.932;2022-09-12T16:18:40;4.70;;;1.70;;
58918;SDS011;44704;50.122;19.932;2022-09-12T16:21:08;4.00;;;1.80;;
58918;SDS011;44704;50.122;19.932;2022-09-12T16:23:35;2.00;;;1.60;;
58918;SDS011;44704;50.122;19.932;2022-09-12T16:26:05;2.90;;;1.70;;
58918;SDS011;44704;50.122;19.932;2022-09-12T16:28:32;3.40;;;1.80;;
58918;SDS011;44704;50.122;19.932;2022-09-12T16:31:00;5.10;;;1.90;;
58918;SDS011;44704;50.122;19.932;2022-09-12T16:33:30;2.90;;;1.70;;
58918;SDS011;44704;50.122;19.932;2022-09-12T16:36:05;2.40;;;1.90;;
58918;SDS011;44704;50.122;19.932;2022-09-12T16:38:38;4.00;;;1.80;;
58918;SDS011;44704;50.122;19.932;2022-09-12T16:41:08;5.50;;;2.20;;
58918;SDS011;44704;50.122;19.932;2022-09-12T16:43:36;4.10;;;2.50;;
58918;SDS011;44704;50.122;19.932;2022-09-12T16:46:05;2.60;;;2.10;;
58918;SDS011;44704;50.122;19.932;2022-09-12T16:48:40;5.50;;;1.90;;
58918;SDS011;44704;50.122;19.932;2022-09-12T16:51:13;3.20;;;2.30;;
58918;SDS011;44704;50.122;19.932;2022-09-12T16:53:41;4.10;;;2.20;;
58918;SDS011;44704;50.122;19.932;2022-09-12T16:56:09;2.60;;;2.40;;
58918;SDS011;44704;50.122;19.932;2022-09-12T16:58:37;5.10;;;2.40;;
58918;SDS011;44704;50.122;19.932;2022-09-12T17:01:06;5.90;;;2.80;;
58918;SDS011;44704;50.122;19.932;2022-09-12T17:03:36;4.50;;;2.50;;
58918;SDS011;44704;50.122;19.932;2022-09-12T17:06:10;5.40;;;2.60;;
58918;SDS011;44704;50.122;19.932;2022-09-12T17:08:39;5.80;;;3.30;;
58918;SDS011;44704;50.122;19.932;2022-09-12T17:11:18;4.00;;;3.40;;
58918;SDS011;44704;50.122;19.932;2022-09-12T17:13:56;6.30;;;3.80;;
58918;SDS011;44704;50.122;19.932;2022-09-12T17:16:25;5.60;;;3.20;;
58918;SDS011;44704;50.122;19.932;2022-09-12T17:18:53;6.00;;;3.50;;
58918;SDS011;44704;50.122;19.932;2022-09-12T17:21:21;7.70;;;3.50;;
58918;SDS011;44704;50.122;19.932;2022-09-12T17:23:48;6.50;;;3.00;;
58918;SDS011;44704;50.122;19.932;2022-09-12T17:26:16;5.10;;;3.10;;
58918;SDS011;44704;50.122;19.932;2022-09-12T17:28:43;7.10;;;2.90;;
58918;SDS011;44704;50.122;19.932;2022-09-12T17:31:11;3.90;;;2.80;;
58918;SDS011;44704;50.122;19.932;2022-09-12T17:33:40;5.50;;;3.00;;
58918;SDS011;44704;50.122;19.932;2022-09-12T17:36:12;4.90;;;3.30;;
58918;SDS011;44704;50.122;19.932;2022-09-12T17:38:41;5.60;;;3.10;;
58918;SDS011;44704;50.122;19.932;2022-09-12T17:41:17;4.10;;;3.10;;
58918;SDS011;44704;50.122;19.932;2022-09-12T17:43:47;6.00;;;3.30;;
58918;SDS011;44704;50.122;19.932;2022-09-12T17:46:17;4.20;;;3.20;;
58918;SDS011;44704;50.122;19.932;2022-09-12T17:48:54;6.60;;;3.40;;